sensor_id;sensor_type;location;lat;lon;timestamp;pressure;altitude;pressure_sealevel;temperature;humidity
12949;BME280;6539;49.476;8.484;2022-09-09T00:02:24;100061.59;;;19.72;64.18
12949;BME280;6539;49.476;8.484;2022-09-09T00:05:26;100059.16;;;19.65;64.51
12949;BME280;6539;49.476;8.484;2022-09-09T00:07:59;100055.69;;;19.55;64.80
12949;BME280;6539;49.476;8.484;2022-09-09T00:10:30;100061.56;;;19.57;65.11
12949;BME280;6539;49.476;8.484;2022-09-09T00:13:40;100059.84;;;19.60;65.32
12949;BME280;6539;49.476;8.484;2022-09-09T00:16:11;100055.22;;;19.57;65.55
12949;BME280;6539;49.476;8.484;2022-09-09T00:21:18;100054.72;;;19.58;66.08
12949;BME280;6539;49.476;8.484;2022-09-09T00:23:54;100054.63;;;19.53;66.60
12949;BME280;6539;49.476;8.484;2022-09-09T00:31:34;100053.69;;;19.56;66.88
12949;BME280;6539;49.476;8.484;2022-09-09T00:34:24;100057.72;;;19.55;67.14
12949;BME280;6539;49.476;8.484;2022-09-09T00:36:53;100048.88;;;19.56;67.20
12949;BME280;6539;49.476;8.484;2022-09-09T00:39:38;100056.28;;;19.59;67.30
12949;BME280;6539;49.476;8.484;2022-09-09T00:42:36;100046.38;;;19.58;67.47
12949;BME280;6539;49.476;8.484;2022-09-09T00:47:56;100043.31;;;19.56;67.78
12949;BME280;6539;49.476;8.484;2022-09-09T00:53:58;100046.13;;;19.47;68.33
12949;BME280;6539;49.476;8.484;2022-09-09T00:56:53;100051.13;;;19.43;68.76
12949;BME280;6539;49.476;8.484;2022-09-09T00:59:52;100050.78;;;19.50;68.29
12949;BME280;6539;49.476;8.484;2022-09-09T01:11:21;100049.66;;;19.57;67.95
12949;BME280;6539;49.476;8.484;2022-09-09T01:13:55;100039.56;;;19.59;68.01
12949;BME280;6539;49.476;8.484;2022-09-09T01:16:28;100039.63;;;19.50;68.14
12949;BME280;6539;49.476;8.484;2022-09-09T01:19:00;100048.34;;;19.43;68.58
12949;BME280;6539;49.476;8.484;2022-09-09T01:22:06;100050.38;;;19.43;68.91
12949;BME280;6539;49.476;8.484;2022-09-09T01:27:43;100059.31;;;19.47;69.19
12949;BME280;6539;49.476;8.484;2022-09-09T01:30:13;100062.09;;;19.47;69.16
12949;BME280;6539;49.476;8.484;2022-09-09T01:32:47;100052.97;;;19.46;69.31
12949;BME280;6539;49.476;8.484;2022-09-09T01:38:17;100059.66;;;19.40;69.74
12949;BME280;6539;49.476;8.484;2022-09-09T01:40:46;100055.94;;;19.43;69.44
12949;BME280;6539;49.476;8.484;2022-09-09T01:43:13;100054.75;;;19.35;69.67
12949;BME280;6539;49.476;8.484;2022-09-09T01:45:42;100061.69;;;19.30;69.67
12949;BME280;6539;49.476;8.484;2022-09-09T01:48:11;100060.75;;;19.33;69.77
12949;BME280;6539;49.476;8.484;2022-09-09T01:50:39;100056.41;;;19.32;69.78
12949;BME280;6539;49.476;8.484;2022-09-09T01:53:05;100057.69;;;19.31;70.09
12949;BME280;6539;49.476;8.484;2022-09-09T01:55:48;100056.91;;;19.31;69.98
12949;BME280;6539;49.476;8.484;2022-09-09T02:04:31;100053.63;;;19.32;69.88
12949;BME280;6539;49.476;8.484;2022-09-09T02:07:19;100050.75;;;19.27;70.00
12949;BME280;6539;49.476;8.484;2022-09-09T02:09:57;100056.41;;;19.32;70.01
12949;BME280;6539;49.476;8.484;2022-09-09T02:12:27;100067.56;;;19.32;69.69
12949;BME280;6539;49.476;8.484;2022-09-09T02:15:06;100067.56;;;19.32;69.70
12949;BME280;6539;49.476;8.484;2022-09-09T02:17:37;100070.81;;;19.31;69.69
12949;BME280;6539;49.476;8.484;2022-09-09T02:20:10;100061.47;;;19.19;70.46
12949;BME280;6539;49.476;8.484;2022-09-09T02:22:41;100053.72;;;19.23;70.03
12949;BME280;6539;49.476;8.484;2022-09-09T02:25:14;100054.16;;;19.22;70.03
12949;BME280;6539;49.476;8.484;2022-09-09T02:27:45;100056.53;;;19.14;70.25
12949;BME280;6539;49.476;8.484;2022-09-09T02:30:15;100055.75;;;19.14;70.35
12949;BME280;6539;49.476;8.484;2022-09-09T02:32:47;100064.09;;;19.14;70.00
12949;BME280;6539;49.476;8.484;2022-09-09T02:35:19;100062.09;;;19.14;69.97
12949;BME280;6539;49.476;8.484;2022-09-09T02:37:46;100061.50;;;19.10;70.18
12949;BME280;6539;49.476;8.484;2022-09-09T02:40:14;100063.72;;;18.97;70.51
12949;BME280;6539;49.476;8.484;2022-09-09T02:42:46;100065.25;;;18.98;70.39
12949;BME280;6539;49.476;8.484;2022-09-09T02:45:17;100064.84;;;18.90;70.85
12949;BME280;6539;49.476;8.484;2022-09-09T02:53:25;100066.22;;;18.95;70.68
12949;BME280;6539;49.476;8.484;2022-09-09T02:56:07;100057.50;;;19.02;70.19
12949;BME280;6539;49.476;8.484;2022-09-09T02:58:36;100056.75;;;19.01;70.36
12949;BME280;6539;49.476;8.484;2022-09-09T03:01:04;100058.16;;;18.97;70.65
12949;BME280;6539;49.476;8.484;2022-09-09T03:03:34;100044.13;;;18.91;70.81
12949;BME280;6539;49.476;8.484;2022-09-09T03:06:01;100043.69;;;18.84;70.88
12949;BME280;6539;49.476;8.484;2022-09-09T03:08:29;100040.63;;;18.82;70.88
12949;BME280;6539;49.476;8.484;2022-09-09T03:10:55;100043.69;;;18.84;70.70
12949;BME280;6539;49.476;8.484;2022-09-09T03:13:21;100044.00;;;18.86;70.56
12949;BME280;6539;49.476;8.484;2022-09-09T03:15:48;100054.81;;;18.84;70.38
12949;BME280;6539;49.476;8.484;2022-09-09T03:18:14;100053.44;;;18.79;70.68
12949;BME280;6539;49.476;8.484;2022-09-09T03:20:40;100052.41;;;18.68;71.35
12949;BME280;6539;49.476;8.484;2022-09-09T03:23:07;100049.47;;;18.71;71.01
12949;BME280;6539;49.476;8.484;2022-09-09T03:25:33;100054.25;;;18.71;70.81
12949;BME280;6539;49.476;8.484;2022-09-09T03:28:01;100054.25;;;18.71;70.67
12949;BME280;6539;49.476;8.484;2022-09-09T03:30:28;100046.38;;;18.69;70.72
12949;BME280;6539;49.476;8.484;2022-09-09T03:32:54;100052.25;;;18.71;70.82
12949;BME280;6539;49.476;8.484;2022-09-09T03:35:23;100047.28;;;18.75;70.49
12949;BME280;6539;49.476;8.484;2022-09-09T03:37:51;100048.22;;;18.72;70.06
12949;BME280;6539;49.476;8.484;2022-09-09T03:40:16;100050.22;;;18.72;70.35
12949;BME280;6539;49.476;8.484;2022-09-09T03:42:45;100051.19;;;18.60;70.97
12949;BME280;6539;49.476;8.484;2022-09-09T03:45:11;100046.53;;;18.66;70.41
12949;BME280;6539;49.476;8.484;2022-09-09T03:47:40;100049.91;;;18.70;70.09
12949;BME280;6539;49.476;8.484;2022-09-09T03:50:08;100062.91;;;18.64;70.29
12949;BME280;6539;49.476;8.484;2022-09-09T03:52:39;100048.91;;;18.58;70.27
12949;BME280;6539;49.476;8.484;2022-09-09T03:55:07;100053.69;;;18.58;70.18
12949;BME280;6539;49.476;8.484;2022-09-09T03:57:34;100057.03;;;18.71;69.61
12949;BME280;6539;49.476;8.484;2022-09-09T04:00:06;100062.47;;;18.65;69.69
12949;BME280;6539;49.476;8.484;2022-09-09T04:02:33;100068.50;;;18.55;69.97
12949;BME280;6539;49.476;8.484;2022-09-09T04:05:01;100055.22;;;18.59;69.97
12949;BME280;6539;49.476;8.484;2022-09-09T04:07:29;100062.16;;;18.63;69.81
12949;BME280;6539;49.476;8.484;2022-09-09T04:09:55;100051.34;;;18.65;69.89
12949;BME280;6539;49.476;8.484;2022-09-09T04:12:22;100062.31;;;18.60;70.23
12949;BME280;6539;49.476;8.484;2022-09-09T04:14:48;100056.16;;;18.56;70.61
12949;BME280;6539;49.476;8.484;2022-09-09T04:17:16;100057.09;;;18.53;70.88
12949;BME280;6539;49.476;8.484;2022-09-09T04:19:46;100056.19;;;18.47;70.98
12949;BME280;6539;49.476;8.484;2022-09-09T04:22:14;100057.09;;;18.35;71.60
12949;BME280;6539;49.476;8.484;2022-09-09T04:24:40;100060.81;;;18.41;71.46
12949;BME280;6539;49.476;8.484;2022-09-09T04:27:05;100052.47;;;18.41;71.69
12949;BME280;6539;49.476;8.484;2022-09-09T04:29:33;100062.81;;;18.40;71.79
12949;BME280;6539;49.476;8.484;2022-09-09T04:32:02;100060.19;;;18.37;71.81
12949;BME280;6539;49.476;8.484;2022-09-09T04:34:30;100068.84;;;18.29;72.17
12949;BME280;6539;49.476;8.484;2022-09-09T04:36:58;100062.97;;;18.27;72.11
12949;BME280;6539;49.476;8.484;2022-09-09T04:39:25;100063.47;;;18.26;72.50
12949;BME280;6539;49.476;8.484;2022-09-09T04:41:50;100069.47;;;18.24;72.46
12949;BME280;6539;49.476;8.484;2022-09-09T04:44:16;100073.97;;;18.13;72.79
12949;BME280;6539;49.476;8.484;2022-09-09T04:46:42;100085.88;;;18.13;73.09
12949;BME280;6539;49.476;8.484;2022-09-09T04:49:10;100082.44;;;18.27;72.67
12949;BME280;6539;49.476;8.484;2022-09-09T04:51:36;100091.25;;;18.35;72.27
12949;BME280;6539;49.476;8.484;2022-09-09T04:54:04;100089.22;;;18.45;72.19
12949;BME280;6539;49.476;8.484;2022-09-09T04:56:31;100085.06;;;18.49;71.67
12949;BME280;6539;49.476;8.484;2022-09-09T04:58:56;100090.78;;;18.46;71.47
12949;BME280;6539;49.476;8.484;2022-09-09T05:01:29;100079.94;;;18.39;71.95
12949;BME280;6539;49.476;8.484;2022-09-09T05:03:54;100078.69;;;18.40;71.77
12949;BME280;6539;49.476;8.484;2022-09-09T05:06:22;100088.47;;;18.35;72.04
12949;BME280;6539;49.476;8.484;2022-09-09T05:08:50;100089.84;;;18.49;71.58
12949;BME280;6539;49.476;8.484;2022-09-09T05:11:21;100092.78;;;18.54;71.13
12949;BME280;6539;49.476;8.484;2022-09-09T05:13:52;100089.34;;;18.59;70.65
12949;BME280;6539;49.476;8.484;2022-09-09T05:16:19;100093.31;;;18.76;71.12
12949;BME280;6539;49.476;8.484;2022-09-09T05:18:46;100097.31;;;18.84;69.69
12949;BME280;6539;49.476;8.484;2022-09-09T05:21:17;100099.50;;;18.80;69.86
12949;BME280;6539;49.476;8.484;2022-09-09T05:23:54;100105.66;;;18.84;69.64
12949;BME280;6539;49.476;8.484;2022-09-09T05:26:22;100106.31;;;18.70;70.11
12949;BME280;6539;49.476;8.484;2022-09-09T05:28:50;100106.16;;;18.74;70.08
12949;BME280;6539;49.476;8.484;2022-09-09T05:31:18;100108.78;;;18.68;70.09
12949;BME280;6539;49.476;8.484;2022-09-09T05:33:46;100121.63;;;18.66;70.44
12949;BME280;6539;49.476;8.484;2022-09-09T05:36:18;100113.28;;;18.57;71.02
12949;BME280;6539;49.476;8.484;2022-09-09T05:38:44;100122.59;;;18.45;71.37
12949;BME280;6539;49.476;8.484;2022-09-09T05:41:14;100109.75;;;18.29;72.26
12949;BME280;6539;49.476;8.484;2022-09-09T05:43:44;100120.13;;;18.28;72.42
12949;BME280;6539;49.476;8.484;2022-09-09T05:46:17;100119.19;;;18.32;72.31
12949;BME280;6539;49.476;8.484;2022-09-09T05:48:46;100117.91;;;18.42;71.92
12949;BME280;6539;49.476;8.484;2022-09-09T05:51:23;100122.44;;;18.30;72.49
12949;BME280;6539;49.476;8.484;2022-09-09T05:53:50;100124.13;;;18.37;72.40
12949;BME280;6539;49.476;8.484;2022-09-09T05:56:23;100127.53;;;18.50;72.30
12949;BME280;6539;49.476;8.484;2022-09-09T05:58:51;100133.41;;;18.52;71.82
12949;BME280;6539;49.476;8.484;2022-09-09T06:01:30;100137.88;;;18.58;71.51
12949;BME280;6539;49.476;8.484;2022-09-09T06:03:59;100146.34;;;18.64;71.43
12949;BME280;6539;49.476;8.484;2022-09-09T06:06:37;100147.59;;;18.63;71.01
12949;BME280;6539;49.476;8.484;2022-09-09T06:09:07;100157.94;;;18.53;71.79
12949;BME280;6539;49.476;8.484;2022-09-09T06:11:37;100151.00;;;18.58;71.80
12949;BME280;6539;49.476;8.484;2022-09-09T06:14:04;100146.94;;;18.68;71.40
12949;BME280;6539;49.476;8.484;2022-09-09T06:16:32;100140.91;;;18.78;71.32
12949;BME280;6539;49.476;8.484;2022-09-09T06:19:03;100143.22;;;18.89;70.59
12949;BME280;6539;49.476;8.484;2022-09-09T06:21:38;100139.44;;;19.01;69.72
12949;BME280;6539;49.476;8.484;2022-09-09T06:24:08;100133.91;;;19.43;68.33
12949;BME280;6539;49.476;8.484;2022-09-09T06:26:38;100140.44;;;19.87;66.79
12949;BME280;6539;49.476;8.484;2022-09-09T06:29:10;100139.59;;;19.96;65.60
12949;BME280;6539;49.476;8.484;2022-09-09T06:31:39;100134.75;;;19.82;66.05
12949;BME280;6539;49.476;8.484;2022-09-09T06:34:07;100147.19;;;19.71;66.73
12949;BME280;6539;49.476;8.484;2022-09-09T06:36:38;100135.13;;;19.42;67.10
12949;BME280;6539;49.476;8.484;2022-09-09T06:39:07;100138.69;;;19.42;67.43
12949;BME280;6539;49.476;8.484;2022-09-09T06:41:37;100150.13;;;19.44;67.61
12949;BME280;6539;49.476;8.484;2022-09-09T06:44:03;100143.38;;;19.36;67.54
12949;BME280;6539;49.476;8.484;2022-09-09T06:46:37;100151.44;;;19.25;68.55
12949;BME280;6539;49.476;8.484;2022-09-09T06:49:05;100159.13;;;19.30;68.42
12949;BME280;6539;49.476;8.484;2022-09-09T06:51:37;100158.19;;;19.33;68.07
12949;BME280;6539;49.476;8.484;2022-09-09T06:54:08;100168.91;;;19.58;67.62
12949;BME280;6539;49.476;8.484;2022-09-09T06:56:40;100164.00;;;19.53;67.56
12949;BME280;6539;49.476;8.484;2022-09-09T06:59:08;100158.91;;;19.52;67.42
12949;BME280;6539;49.476;8.484;2022-09-09T07:01:39;100151.69;;;19.69;67.43
12949;BME280;6539;49.476;8.484;2022-09-09T07:04:18;100161.41;;;19.73;66.64
12949;BME280;6539;49.476;8.484;2022-09-09T07:06:46;100161.63;;;19.61;66.68
12949;BME280;6539;49.476;8.484;2022-09-09T07:09:14;100156.78;;;19.47;66.97
12949;BME280;6539;49.476;8.484;2022-09-09T07:11:46;100150.47;;;19.37;68.08
12949;BME280;6539;49.476;8.484;2022-09-09T07:14:13;100163.09;;;19.47;67.68
12949;BME280;6539;49.476;8.484;2022-09-09T07:16:40;100155.81;;;19.50;67.79
12949;BME280;6539;49.476;8.484;2022-09-09T07:19:07;100152.78;;;19.62;67.34
12949;BME280;6539;49.476;8.484;2022-09-09T07:21:35;100161.53;;;20.26;66.08
12949;BME280;6539;49.476;8.484;2022-09-09T07:24:01;100162.13;;;20.45;63.56
12949;BME280;6539;49.476;8.484;2022-09-09T07:26:31;100153.56;;;20.34;63.51
12949;BME280;6539;49.476;8.484;2022-09-09T07:28:57;100154.81;;;20.33;63.95
12949;BME280;6539;49.476;8.484;2022-09-09T07:31:35;100156.91;;;20.23;64.46
12949;BME280;6539;49.476;8.484;2022-09-09T07:34:03;100150.88;;;20.25;64.38
12949;BME280;6539;49.476;8.484;2022-09-09T07:36:38;100158.19;;;20.13;64.76
12949;BME280;6539;49.476;8.484;2022-09-09T07:39:11;100151.31;;;20.23;64.49
12949;BME280;6539;49.476;8.484;2022-09-09T07:41:46;100162.19;;;20.21;64.21
12949;BME280;6539;49.476;8.484;2022-09-09T07:44:16;100162.22;;;20.12;64.49
12949;BME280;6539;49.476;8.484;2022-09-09T07:46:43;100159.84;;;20.20;64.80
12949;BME280;6539;49.476;8.484;2022-09-09T07:49:11;100156.72;;;20.27;63.83
12949;BME280;6539;49.476;8.484;2022-09-09T07:51:44;100161.28;;;20.15;64.58
12949;BME280;6539;49.476;8.484;2022-09-09T07:54:14;100167.91;;;20.18;64.74
12949;BME280;6539;49.476;8.484;2022-09-09T07:56:43;100170.19;;;20.28;64.13
12949;BME280;6539;49.476;8.484;2022-09-09T07:59:08;100160.75;;;20.26;64.51
12949;BME280;6539;49.476;8.484;2022-09-09T08:01:58;100154.94;;;20.53;64.10
12949;BME280;6539;49.476;8.484;2022-09-09T08:04:26;100182.28;;;20.64;63.55
12949;BME280;6539;49.476;8.484;2022-09-09T08:07:00;100180.16;;;20.59;62.96
12949;BME280;6539;49.476;8.484;2022-09-09T08:09:28;100179.00;;;20.65;63.25
12949;BME280;6539;49.476;8.484;2022-09-09T08:11:57;100181.91;;;20.85;62.34
12949;BME280;6539;49.476;8.484;2022-09-09T08:14:24;100181.94;;;21.14;61.59
12949;BME280;6539;49.476;8.484;2022-09-09T08:16:50;100193.63;;;21.48;60.04
12949;BME280;6539;49.476;8.484;2022-09-09T08:19:16;100177.91;;;21.50;59.60
12949;BME280;6539;49.476;8.484;2022-09-09T08:21:44;100191.97;;;21.56;59.72
12949;BME280;6539;49.476;8.484;2022-09-09T08:24:11;100183.81;;;21.38;60.97
12949;BME280;6539;49.476;8.484;2022-09-09T08:26:45;100182.38;;;20.98;62.26
12949;BME280;6539;49.476;8.484;2022-09-09T08:29:13;100169.19;;;20.84;62.61
12949;BME280;6539;49.476;8.484;2022-09-09T08:31:51;100176.59;;;20.73;63.43
12949;BME280;6539;49.476;8.484;2022-09-09T08:34:18;100180.44;;;20.61;64.21
12949;BME280;6539;49.476;8.484;2022-09-09T08:36:51;100190.81;;;20.60;64.74
12949;BME280;6539;49.476;8.484;2022-09-09T08:39:20;100186.03;;;20.90;64.13
12949;BME280;6539;49.476;8.484;2022-09-09T08:42:19;100196.31;;;20.98;63.15
12949;BME280;6539;49.476;8.484;2022-09-09T08:45:37;100194.81;;;21.12;62.71
12949;BME280;6539;49.476;8.484;2022-09-09T08:48:23;100192.00;;;21.26;62.19
12949;BME280;6539;49.476;8.484;2022-09-09T08:50:55;100187.03;;;21.31;61.51
12949;BME280;6539;49.476;8.484;2022-09-09T08:53:42;100189.28;;;21.47;61.14
12949;BME280;6539;49.476;8.484;2022-09-09T08:56:18;100190.41;;;21.55;60.80
12949;BME280;6539;49.476;8.484;2022-09-09T08:58:51;100195.25;;;21.54;60.54
12949;BME280;6539;49.476;8.484;2022-09-09T09:04:51;100189.34;;;21.52;60.59
12949;BME280;6539;49.476;8.484;2022-09-09T09:12:43;100191.66;;;22.03;59.93
12949;BME280;6539;49.476;8.484;2022-09-09T09:15:38;100182.91;;;22.82;61.19
12949;BME280;6539;49.476;8.484;2022-09-09T09:18:07;100174.72;;;23.72;54.92
12949;BME280;6539;49.476;8.484;2022-09-09T09:23:25;100186.81;;;23.94;52.05
12949;BME280;6539;49.476;8.484;2022-09-09T09:26:00;100197.19;;;24.31;51.50
12949;BME280;6539;49.476;8.484;2022-09-09T09:28:31;100192.19;;;24.68;51.15
12949;BME280;6539;49.476;8.484;2022-09-09T09:31:04;100183.22;;;24.53;49.57
12949;BME280;6539;49.476;8.484;2022-09-09T09:36:10;100170.94;;;24.34;50.41
12949;BME280;6539;49.476;8.484;2022-09-09T09:38:36;100171.59;;;24.06;51.25
12949;BME280;6539;49.476;8.484;2022-09-09T09:41:03;100176.06;;;23.87;51.49
12949;BME280;6539;49.476;8.484;2022-09-09T09:43:40;100187.69;;;23.69;51.64
12949;BME280;6539;49.476;8.484;2022-09-09T09:46:22;100196.22;;;23.49;52.46
12949;BME280;6539;49.476;8.484;2022-09-09T09:49:09;100201.75;;;23.12;53.31
12949;BME280;6539;49.476;8.484;2022-09-09T09:51:37;100202.81;;;22.89;53.86
12949;BME280;6539;49.476;8.484;2022-09-09T09:54:30;100213.91;;;22.58;55.48
12949;BME280;6539;49.476;8.484;2022-09-09T09:57:16;100225.31;;;22.34;57.89
12949;BME280;6539;49.476;8.484;2022-09-09T09:59:42;100231.94;;;21.62;63.69
12949;BME280;6539;49.476;8.484;2022-09-09T10:02:20;100221.50;;;21.13;66.61
12949;BME280;6539;49.476;8.484;2022-09-09T10:05:02;100204.78;;;20.60;65.16
12949;BME280;6539;49.476;8.484;2022-09-09T10:07:29;100223.34;;;20.25;66.03
12949;BME280;6539;49.476;8.484;2022-09-09T10:09:58;100219.22;;;20.11;66.88
12949;BME280;6539;49.476;8.484;2022-09-09T10:12:55;100214.28;;;20.06;68.12
12949;BME280;6539;49.476;8.484;2022-09-09T10:18:16;100200.81;;;20.52;68.36
12949;BME280;6539;49.476;8.484;2022-09-09T10:21:06;100198.25;;;20.92;67.51
12949;BME280;6539;49.476;8.484;2022-09-09T10:27:18;100184.88;;;22.30;63.19
12949;BME280;6539;49.476;8.484;2022-09-09T10:30:17;100187.28;;;22.62;62.10
12949;BME280;6539;49.476;8.484;2022-09-09T10:39:06;100178.47;;;23.63;59.84
12949;BME280;6539;49.476;8.484;2022-09-09T10:42:05;100164.84;;;23.87;58.26
12949;BME280;6539;49.476;8.484;2022-09-09T10:45:17;100162.09;;;23.98;58.13
12949;BME280;6539;49.476;8.484;2022-09-09T10:50:52;100163.97;;;24.18;56.17
12949;BME280;6539;49.476;8.484;2022-09-09T10:53:53;100153.34;;;24.44;52.64
12949;BME280;6539;49.476;8.484;2022-09-09T10:56:28;100150.03;;;24.46;53.29
12949;BME280;6539;49.476;8.484;2022-09-09T11:01:46;100140.28;;;24.24;53.34
12949;BME280;6539;49.476;8.484;2022-09-09T11:04:31;100143.38;;;24.38;52.46
12949;BME280;6539;49.476;8.484;2022-09-09T11:07:06;100143.19;;;24.58;48.75
12949;BME280;6539;49.476;8.484;2022-09-09T11:09:44;100132.91;;;24.27;49.81
12949;BME280;6539;49.476;8.484;2022-09-09T11:12:19;100142.19;;;23.96;51.20
12949;BME280;6539;49.476;8.484;2022-09-09T11:15:06;100139.97;;;23.27;52.87
12949;BME280;6539;49.476;8.484;2022-09-09T11:17:43;100135.97;;;23.33;53.02
12949;BME280;6539;49.476;8.484;2022-09-09T11:20:13;100134.75;;;23.82;51.84
12949;BME280;6539;49.476;8.484;2022-09-09T11:22:55;100135.44;;;24.19;50.70
12949;BME280;6539;49.476;8.484;2022-09-09T11:25:44;100135.44;;;24.31;50.33
12949;BME280;6539;49.476;8.484;2022-09-09T11:39:52;100130.84;;;24.16;47.42
12949;BME280;6539;49.476;8.484;2022-09-09T11:42:24;100126.22;;;24.08;48.75
12949;BME280;6539;49.476;8.484;2022-09-09T11:44:51;100131.19;;;23.87;47.80
12949;BME280;6539;49.476;8.484;2022-09-09T11:47:25;100128.63;;;23.78;47.18
12949;BME280;6539;49.476;8.484;2022-09-09T11:52:45;100126.13;;;23.91;46.97
12949;BME280;6539;49.476;8.484;2022-09-09T11:55:35;100118.44;;;23.86;47.67
12949;BME280;6539;49.476;8.484;2022-09-09T12:00:47;100123.09;;;24.00;47.32
12949;BME280;6539;49.476;8.484;2022-09-09T12:06:30;100123.81;;;23.90;47.27
12949;BME280;6539;49.476;8.484;2022-09-09T12:17:18;100151.00;;;23.73;48.27
12949;BME280;6539;49.476;8.484;2022-09-09T12:19:48;100147.47;;;23.83;47.80
12949;BME280;6539;49.476;8.484;2022-09-09T12:28:47;100147.03;;;23.17;47.66
12949;BME280;6539;49.476;8.484;2022-09-09T12:34:47;100151.09;;;23.41;47.06
12949;BME280;6539;49.476;8.484;2022-09-09T12:38:01;100135.78;;;23.42;47.54
12949;BME280;6539;49.476;8.484;2022-09-09T12:40:33;100156.25;;;23.54;48.50
12949;BME280;6539;49.476;8.484;2022-09-09T12:43:21;100153.00;;;23.61;48.77
12949;BME280;6539;49.476;8.484;2022-09-09T12:45:51;100135.47;;;23.77;49.27
12949;BME280;6539;49.476;8.484;2022-09-09T12:48:35;100137.59;;;23.45;49.82
12949;BME280;6539;49.476;8.484;2022-09-09T12:51:18;100129.91;;;23.35;51.34
12949;BME280;6539;49.476;8.484;2022-09-09T12:53:45;100144.50;;;23.19;51.61
12949;BME280;6539;49.476;8.484;2022-09-09T12:56:29;100123.88;;;23.16;51.85
12949;BME280;6539;49.476;8.484;2022-09-09T12:58:58;100111.44;;;23.23;50.69
12949;BME280;6539;49.476;8.484;2022-09-09T13:01:35;100113.63;;;23.39;50.26
12949;BME280;6539;49.476;8.484;2022-09-09T13:04:01;100111.09;;;23.41;50.45
12949;BME280;6539;49.476;8.484;2022-09-09T13:06:32;100133.66;;;23.69;49.19
12949;BME280;6539;49.476;8.484;2022-09-09T13:09:02;100142.56;;;23.67;50.07
12949;BME280;6539;49.476;8.484;2022-09-09T13:11:36;100138.97;;;23.61;50.91
12949;BME280;6539;49.476;8.484;2022-09-09T13:14:29;100151.91;;;23.53;51.44
12949;BME280;6539;49.476;8.484;2022-09-09T13:17:01;100133.56;;;23.52;51.50
12949;BME280;6539;49.476;8.484;2022-09-09T13:19:35;100137.09;;;23.47;52.70
12949;BME280;6539;49.476;8.484;2022-09-09T13:22:35;100142.56;;;23.30;54.48
12949;BME280;6539;49.476;8.484;2022-09-09T13:25:27;100150.91;;;23.25;55.25
12949;BME280;6539;49.476;8.484;2022-09-09T13:27:59;100156.47;;;23.14;56.43
12949;BME280;6539;49.476;8.484;2022-09-09T13:30:29;100163.50;;;23.04;57.05
12949;BME280;6539;49.476;8.484;2022-09-09T13:35:58;100136.56;;;21.89;62.26
12949;BME280;6539;49.476;8.484;2022-09-09T13:38:29;100149.09;;;21.79;61.31
12949;BME280;6539;49.476;8.484;2022-09-09T13:41:06;100146.25;;;21.73;61.49
12949;BME280;6539;49.476;8.484;2022-09-09T13:43:42;100143.13;;;21.86;64.55
12949;BME280;6539;49.476;8.484;2022-09-09T13:46:40;100137.94;;;21.79;64.55
12949;BME280;6539;49.476;8.484;2022-09-09T13:51:43;100141.50;;;22.20;65.84
12949;BME280;6539;49.476;8.484;2022-09-09T13:54:18;100136.59;;;22.35;66.56
12949;BME280;6539;49.476;8.484;2022-09-09T13:56:45;100138.91;;;22.36;66.06
12949;BME280;6539;49.476;8.484;2022-09-09T13:59:18;100137.09;;;22.33;63.78
12949;BME280;6539;49.476;8.484;2022-09-09T14:01:48;100134.78;;;22.32;61.58
12949;BME280;6539;49.476;8.484;2022-09-09T14:04:18;100129.25;;;22.37;61.22
12949;BME280;6539;49.476;8.484;2022-09-09T14:06:47;100122.47;;;22.24;59.16
12949;BME280;6539;49.476;8.484;2022-09-09T14:09:17;100121.41;;;22.41;59.29
12949;BME280;6539;49.476;8.484;2022-09-09T14:11:44;100118.09;;;22.43;57.84
12949;BME280;6539;49.476;8.484;2022-09-09T14:14:13;100109.66;;;22.37;56.43
12949;BME280;6539;49.476;8.484;2022-09-09T14:16:40;100112.22;;;22.41;57.49
12949;BME280;6539;49.476;8.484;2022-09-09T14:19:08;100105.16;;;22.45;56.92
12949;BME280;6539;49.476;8.484;2022-09-09T14:21:33;100101.00;;;22.35;57.33
12949;BME280;6539;49.476;8.484;2022-09-09T14:23:59;100097.56;;;22.26;57.10
12949;BME280;6539;49.476;8.484;2022-09-09T14:26:28;100089.25;;;22.31;57.17
12949;BME280;6539;49.476;8.484;2022-09-09T14:28:55;100086.84;;;22.19;56.73
12949;BME280;6539;49.476;8.484;2022-09-09T14:31:23;100087.81;;;22.16;55.67
12949;BME280;6539;49.476;8.484;2022-09-09T14:33:49;100094.84;;;22.31;55.96
12949;BME280;6539;49.476;8.484;2022-09-09T14:36:19;100097.94;;;22.33;54.71
12949;BME280;6539;49.476;8.484;2022-09-09T14:38:45;100092.22;;;22.22;55.15
12949;BME280;6539;49.476;8.484;2022-09-09T14:41:13;100096.97;;;22.16;54.79
12949;BME280;6539;49.476;8.484;2022-09-09T14:43:42;100106.03;;;22.06;54.78
12949;BME280;6539;49.476;8.484;2022-09-09T14:46:14;100096.44;;;21.92;56.13
12949;BME280;6539;49.476;8.484;2022-09-09T14:48:41;100097.13;;;21.87;56.39
12949;BME280;6539;49.476;8.484;2022-09-09T14:51:16;100097.81;;;21.82;56.44
12949;BME280;6539;49.476;8.484;2022-09-09T14:53:44;100091.00;;;21.83;56.77
12949;BME280;6539;49.476;8.484;2022-09-09T14:56:19;100107.00;;;21.82;56.83
12949;BME280;6539;49.476;8.484;2022-09-09T14:58:52;100120.59;;;21.75;56.55
12949;BME280;6539;49.476;8.484;2022-09-09T15:01:19;100113.34;;;21.63;56.98
12949;BME280;6539;49.476;8.484;2022-09-09T15:04:00;100109.63;;;21.51;58.17
12949;BME280;6539;49.476;8.484;2022-09-09T15:06:32;100114.63;;;21.47;59.29
12949;BME280;6539;49.476;8.484;2022-09-09T15:08:59;100120.16;;;21.62;59.76
12949;BME280;6539;49.476;8.484;2022-09-09T15:11:33;100127.41;;;21.88;59.66
12949;BME280;6539;49.476;8.484;2022-09-09T15:14:04;100129.66;;;21.84;59.00
12949;BME280;6539;49.476;8.484;2022-09-09T15:16:33;100128.75;;;21.78;59.33
12949;BME280;6539;49.476;8.484;2022-09-09T15:19:01;100146.16;;;21.48;60.38
12949;BME280;6539;49.476;8.484;2022-09-09T15:21:35;100142.13;;;21.34;61.34
12949;BME280;6539;49.476;8.484;2022-09-09T15:24:04;100130.72;;;21.17;62.10
12949;BME280;6539;49.476;8.484;2022-09-09T15:26:30;100117.81;;;21.05;61.38
12949;BME280;6539;49.476;8.484;2022-09-09T15:28:57;100113.19;;;20.88;59.53